createdAt,value
2022-10-29T00:00:01.375Z,66.87
2022-10-29T00:02:37.106Z,66.98
2022-10-29T00:05:04.741Z,66.83
2022-10-29T00:07:32.100Z,67.22
2022-10-29T00:09:59.445Z,66.37
2022-10-29T00:12:27.596Z,62.62
2022-10-29T00:14:54.935Z,60.88
2022-10-29T00:17:22.609Z,62.41
2022-10-29T00:19:50.095Z,62.56
2022-10-29T00:22:17.435Z,61.46
2022-10-29T00:24:44.798Z,61.15
2022-10-29T00:27:12.117Z,61.75
2022-10-29T00:29:39.469Z,62.43
2022-10-29T00:32:08.016Z,62.57
2022-10-29T00:34:35.441Z,61.33
2022-10-29T00:37:04.096Z,61.09
2022-10-29T00:39:33.408Z,61.60
2022-10-29T00:42:01.978Z,62.33
2022-10-29T00:44:38.819Z,62.83
2022-10-29T00:47:28.812Z,62.39
2022-10-29T00:50:25.559Z,60.86
2022-10-29T00:52:54.442Z,60.97
2022-10-29T00:55:21.907Z,61.41
2022-10-29T00:57:53.077Z,61.26
2022-10-29T01:00:21.828Z,60.06
2022-10-29T01:02:50.572Z,58.15
2022-10-29T01:05:21.902Z,59.16
2022-10-29T01:07:49.312Z,59.53
2022-10-29T01:10:17.770Z,62.30
2022-10-29T01:12:54.342Z,62.25
2022-10-29T01:15:34.647Z,63.42
2022-10-29T01:18:20.489Z,63.69
2022-10-29T01:20:59.790Z,64.51
2022-10-29T01:23:45.647Z,64.95
2022-10-29T01:26:50.155Z,66.06
2022-10-29T01:29:54.888Z,65.77
2022-10-29T01:32:36.502Z,65.44
2022-10-29T01:35:19.690Z,66.44
2022-10-29T01:37:54.384Z,67.07
2022-10-29T01:40:49.230Z,66.61
2022-10-29T01:43:31.532Z,67.12
2022-10-29T01:46:06.393Z,67.36
2022-10-29T01:48:38.351Z,66.87
2022-10-29T01:51:11.966Z,67.59
2022-10-29T01:53:39.925Z,67.07
2022-10-29T01:56:07.562Z,67.17
2022-10-29T01:58:38.075Z,66.97
2022-10-29T02:01:18.196Z,65.84
2022-10-29T02:04:24.398Z,65.93
2022-10-29T02:07:33.014Z,64.18
2022-10-29T02:10:15.336Z,64.03
2022-10-29T02:12:53.806Z,63.97
2022-10-29T02:15:36.008Z,64.46
2022-10-29T02:18:06.032Z,63.86
2022-10-29T02:20:33.595Z,64.39
2022-10-29T02:23:02.262Z,64.01
2022-10-29T02:25:29.690Z,61.41
2022-10-29T02:27:59.608Z,61.68
2022-10-29T02:30:26.995Z,62.28
2022-10-29T02:32:54.577Z,62.39
2022-10-29T02:35:22.216Z,62.70
2022-10-29T02:37:49.629Z,62.91
2022-10-29T02:40:16.964Z,63.35
2022-10-29T02:42:44.295Z,63.55
2022-10-29T02:45:11.653Z,63.40
2022-10-29T02:47:38.924Z,63.16
2022-10-29T02:50:06.797Z,62.46
2022-10-29T02:52:34.125Z,63.07
2022-10-29T02:55:01.474Z,63.04
2022-10-29T02:57:28.751Z,61.95
2022-10-29T02:59:56.185Z,62.57
2022-10-29T03:02:23.654Z,64.31
2022-10-29T03:04:50.990Z,64.52
2022-10-29T03:07:18.302Z,64.30
2022-10-29T03:09:45.602Z,64.31
2022-10-29T03:12:13.010Z,64.23
2022-10-29T03:14:40.291Z,64.24
2022-10-29T03:17:07.582Z,65.31
2022-10-29T03:19:34.941Z,65.98
2022-10-29T03:22:02.244Z,65.52
2022-10-29T03:24:29.611Z,66.08
2022-10-29T03:26:56.782Z,65.39
2022-10-29T03:29:24.688Z,65.47
2022-10-29T03:31:52.157Z,65.05
2022-10-29T03:34:19.507Z,65.67
2022-10-29T03:36:46.876Z,65.00
2022-10-29T03:39:14.194Z,64.57
2022-10-29T03:41:41.737Z,64.75
2022-10-29T03:44:09.462Z,64.82
2022-10-29T03:46:36.871Z,64.31
2022-10-29T03:49:04.196Z,64.87
2022-10-29T03:51:31.516Z,63.88
2022-10-29T03:53:58.793Z,63.01
2022-10-29T03:56:26.050Z,63.45
2022-10-29T03:58:53.307Z,63.79
2022-10-29T04:01:23.389Z,63.49
2022-10-29T04:03:50.857Z,61.67
2022-10-29T04:06:18.556Z,57.30
2022-10-29T04:08:45.999Z,57.68
2022-10-29T04:11:14.406Z,57.49
2022-10-29T04:13:41.683Z,58.98
2022-10-29T04:16:09.285Z,59.66
2022-10-29T04:18:36.650Z,60.50
2022-10-29T04:27:24.787Z,60.99
2022-10-29T04:29:26.579Z,62.70
2022-10-29T04:31:53.932Z,63.97
2022-10-29T04:34:21.233Z,62.65
2022-10-29T04:36:48.551Z,61.07
2022-10-29T04:39:18.358Z,61.71
2022-10-29T04:41:49.931Z,60.08
2022-10-29T04:44:17.310Z,60.41
2022-10-29T04:46:44.708Z,59.97
2022-10-29T04:49:12.045Z,60.25
2022-10-29T04:51:39.785Z,57.71
2022-10-29T04:54:07.178Z,56.49
2022-10-29T04:56:34.553Z,56.63
2022-10-29T04:59:02.093Z,57.19
2022-10-29T05:01:31.916Z,57.23
2022-10-29T05:04:00.200Z,55.61
2022-10-29T05:06:27.781Z,54.71
2022-10-29T05:08:55.093Z,54.99
2022-10-29T05:11:22.525Z,55.80
2022-10-29T05:13:49.995Z,55.65
2022-10-29T05:16:17.339Z,54.87
2022-10-29T05:18:47.573Z,54.32
2022-10-29T05:21:17.094Z,53.55
2022-10-29T05:23:44.520Z,52.61
2022-10-29T05:26:11.727Z,52.27
2022-10-29T05:28:39.103Z,52.45
2022-10-29T05:31:06.541Z,51.55
2022-10-29T05:33:33.876Z,51.66
2022-10-29T05:36:01.586Z,52.34
2022-10-29T05:38:28.987Z,51.92
2022-10-29T05:40:58.940Z,51.83
2022-10-29T05:43:26.292Z,52.04
2022-10-29T05:45:54.010Z,52.11
2022-10-29T05:48:21.303Z,52.80
2022-10-29T05:50:48.548Z,53.30
2022-10-29T05:53:15.941Z,52.79
2022-10-29T05:55:43.438Z,52.96
2022-10-29T05:58:13.933Z,53.31
2022-10-29T06:00:44.967Z,53.52
2022-10-29T06:03:14.999Z,53.58
2022-10-29T06:05:42.884Z,53.94
2022-10-29T06:08:11.365Z,55.81
2022-10-29T06:10:38.684Z,56.54
2022-10-29T06:13:33.228Z,57.08
2022-10-29T06:16:01.291Z,56.52
2022-10-29T06:18:28.777Z,56.86
2022-10-29T06:20:59.158Z,57.37
2022-10-29T06:23:27.157Z,57.98
2022-10-29T06:25:54.624Z,57.73
2022-10-29T06:28:22.019Z,57.75
2022-10-29T06:30:50.633Z,56.76
2022-10-29T06:33:18.964Z,56.89
2022-10-29T06:35:46.988Z,56.13
2022-10-29T06:38:14.988Z,56.96
2022-10-29T06:40:43.651Z,56.05
2022-10-29T06:43:12.890Z,54.32
2022-10-29T06:45:40.400Z,54.37
2022-10-29T06:48:07.837Z,51.78
2022-10-29T06:50:35.177Z,52.02
2022-10-29T06:53:07.306Z,51.78
2022-10-29T06:55:36.328Z,51.93
2022-10-29T06:58:11.199Z,48.82
2022-10-29T07:00:38.713Z,48.16
2022-10-29T07:03:08.687Z,46.82
2022-10-29T07:05:36.592Z,45.40
2022-10-29T07:08:04.090Z,45.16
2022-10-29T07:10:33.273Z,44.98
2022-10-29T07:13:01.459Z,44.47
2022-10-29T07:15:30.863Z,44.63
2022-10-29T07:18:07.274Z,44.37
2022-10-29T07:20:42.672Z,44.84
2022-10-29T07:23:11.312Z,45.07
2022-10-29T07:25:40.047Z,44.13
2022-10-29T07:28:18.697Z,44.60
2022-10-29T07:30:46.065Z,43.73
2022-10-29T07:33:13.572Z,44.86
2022-10-29T07:35:41.216Z,44.58
2022-10-29T07:38:11.487Z,44.33
2022-10-29T07:40:41.154Z,43.89
2022-10-29T07:43:09.712Z,43.43
2022-10-29T07:45:37.269Z,42.09
2022-10-29T07:48:10.581Z,41.95
2022-10-29T07:50:39.482Z,42.04
2022-10-29T07:53:07.855Z,42.33
2022-10-29T07:55:35.724Z,41.03
2022-10-29T07:58:06.048Z,41.68
2022-10-29T08:00:35.911Z,40.44
2022-10-29T08:03:03.550Z,40.14
2022-10-29T08:05:31.721Z,39.38
2022-10-29T08:08:00.320Z,38.27
2022-10-29T08:10:28.937Z,38.59
2022-10-29T08:12:58.695Z,37.51
2022-10-29T08:15:28.309Z,37.48
2022-10-29T08:17:56.222Z,36.73
2022-10-29T08:20:26.373Z,35.49
2022-10-29T08:22:54.136Z,35.23
2022-10-29T08:25:22.057Z,34.69
2022-10-29T08:28:00.607Z,34.50
2022-10-29T08:30:28.562Z,34.10
2022-10-29T08:32:56.276Z,33.92
2022-10-29T08:35:24.298Z,34.09
2022-10-29T08:37:52.027Z,34.46
2022-10-29T08:40:47.209Z,35.54
2022-10-29T08:43:27.094Z,36.29
2022-10-29T08:45:56.244Z,36.07
2022-10-29T08:48:48.272Z,35.96
2022-10-29T08:51:31.125Z,36.95
2022-10-29T08:56:56.306Z,36.48
2022-10-29T08:59:26.947Z,36.43
2022-10-29T09:01:54.586Z,36.38
2022-10-29T09:04:33.409Z,35.06
2022-10-29T09:07:09.629Z,34.11
2022-10-29T09:10:04.692Z,35.08
2022-10-29T09:12:56.065Z,35.15
2022-10-29T09:15:37.580Z,34.80
2022-10-29T09:18:26.080Z,34.72
2022-10-29T09:21:16.077Z,35.03
2022-10-29T09:24:05.670Z,34.96
2022-10-29T09:27:00.275Z,34.61
2022-10-29T09:29:53.913Z,34.33
2022-10-29T09:32:52.701Z,33.89
2022-10-29T09:35:23.489Z,33.23
2022-10-29T09:37:58.684Z,33.53
2022-10-29T09:40:37.534Z,34.15
2022-10-29T09:43:40.430Z,33.55
2022-10-29T09:46:19.688Z,32.80
2022-10-29T09:48:57.479Z,31.83
2022-10-29T09:51:44.311Z,31.89
2022-10-29T09:54:12.253Z,30.79
2022-10-29T09:56:43.297Z,30.71
2022-10-29T09:59:28.971Z,30.68
2022-10-29T10:01:58.678Z,31.12
2022-10-29T10:04:37.801Z,31.49
2022-10-29T10:07:13.427Z,32.17
2022-10-29T10:09:58.500Z,30.92
2022-10-29T10:12:29.318Z,30.57
2022-10-29T10:15:30.125Z,29.69
2022-10-29T10:18:01.325Z,30.52
2022-10-29T10:20:36.631Z,30.14
2022-10-29T10:23:27.598Z,31.33
2022-10-29T10:26:03.702Z,31.14
2022-10-29T10:28:37.036Z,29.66
2022-10-29T10:31:04.366Z,29.54
2022-10-29T10:33:35.127Z,28.48
2022-10-29T10:36:08.747Z,27.79
2022-10-29T10:38:45.658Z,27.86
2022-10-29T10:41:15.932Z,27.63
2022-10-29T10:43:48.224Z,27.61
2022-10-29T10:46:34.588Z,27.52
2022-10-29T10:49:18.342Z,28.38
2022-10-29T10:51:51.771Z,28.80
2022-10-29T10:54:34.569Z,28.43
2022-10-29T10:57:05.983Z,29.53
2022-10-29T11:00:00.967Z,29.84
2022-10-29T11:02:38.361Z,29.68
2022-10-29T11:05:12.350Z,30.10
2022-10-29T11:07:55.654Z,29.91
2022-10-29T11:10:31.137Z,28.56
2022-10-29T11:13:03.366Z,28.10
2022-10-29T11:15:48.273Z,28.52
2022-10-29T11:18:25.533Z,29.07
2022-10-29T11:21:05.767Z,28.89
2022-10-29T11:23:55.657Z,28.83
2022-10-29T11:26:28.721Z,29.00
2022-10-29T11:29:06.374Z,28.71
2022-10-29T11:31:45.529Z,28.62
2022-10-29T11:34:38.272Z,28.43
2022-10-29T11:37:28.301Z,27.00
2022-10-29T11:40:18.558Z,28.18
2022-10-29T11:42:48.392Z,27.91
2022-10-29T11:45:35.518Z,27.51
2022-10-29T11:48:16.534Z,25.99
2022-10-29T11:50:50.935Z,25.85
2022-10-29T11:53:34.363Z,25.86
2022-10-29T11:56:10.866Z,26.22
2022-10-29T11:59:01.797Z,25.09
2022-10-29T12:01:48.302Z,25.18
2022-10-29T12:04:24.123Z,25.61
2022-10-29T12:07:29.119Z,26.67
2022-10-29T12:10:15.048Z,25.95
2022-10-29T12:13:00.673Z,26.48
2022-10-29T12:15:32.603Z,26.91
2022-10-29T12:18:07.711Z,27.27
2022-10-29T12:20:43.513Z,27.87
2022-10-29T12:23:38.216Z,28.69
2022-10-29T12:26:20.369Z,28.96
2022-10-29T12:29:03.496Z,28.57
2022-10-29T12:31:36.901Z,29.07
2022-10-29T12:34:30.553Z,29.60
2022-10-29T12:37:23.332Z,29.99
2022-10-29T12:39:58.203Z,30.76
2022-10-29T12:42:27.448Z,30.80
2022-10-29T12:45:19.546Z,31.10
2022-10-29T12:48:03.954Z,31.45
2022-10-29T12:51:00.102Z,31.54
2022-10-29T12:53:44.352Z,31.83
2022-10-29T12:56:16.423Z,33.23
2022-10-29T12:58:57.307Z,32.25
2022-10-29T13:01:50.201Z,32.29
2022-10-29T13:04:29.849Z,32.54
2022-10-29T13:07:07.494Z,32.52
2022-10-29T13:09:37.685Z,32.92
2022-10-29T13:12:12.458Z,32.92
2022-10-29T13:15:09.939Z,33.26
2022-10-29T13:17:40.560Z,34.11
2022-10-29T13:20:30.717Z,33.53
2022-10-29T13:23:05.189Z,34.16
2022-10-29T13:25:38.682Z,34.36
2022-10-29T13:28:14.870Z,33.31
2022-10-29T13:30:46.465Z,32.75
2022-10-29T13:33:31.324Z,32.88
2022-10-29T13:36:27.815Z,33.41
2022-10-29T13:39:05.840Z,33.12
2022-10-29T13:41:43.615Z,33.13
2022-10-29T13:44:13.806Z,32.45
2022-10-29T13:47:09.236Z,32.74
2022-10-29T13:49:45.952Z,32.14
2022-10-29T13:52:19.289Z,32.08
2022-10-29T13:54:59.346Z,32.43
2022-10-29T13:57:48.851Z,32.42
2022-10-29T14:00:22.423Z,32.16
2022-10-29T14:02:55.768Z,32.82
2022-10-29T14:05:52.543Z,32.73
2022-10-29T14:08:36.218Z,32.83
2022-10-29T14:11:12.997Z,33.04
2022-10-29T14:13:50.887Z,33.48
2022-10-29T14:16:21.899Z,33.63
2022-10-29T14:18:50.625Z,34.27
2022-10-29T14:21:23.675Z,34.77
2022-10-29T14:24:05.533Z,34.86
2022-10-29T14:26:38.803Z,36.05
2022-10-29T14:29:25.999Z,37.30
2022-10-29T14:32:12.409Z,37.90
2022-10-29T14:34:43.079Z,38.59
2022-10-29T14:37:32.156Z,39.23
2022-10-29T14:40:16.963Z,39.87
2022-10-29T14:42:48.043Z,40.43
2022-10-29T14:45:28.956Z,41.06
2022-10-29T14:47:58.965Z,41.89
2022-10-29T14:50:28.339Z,42.76
2022-10-29T14:53:06.832Z,44.18
2022-10-29T14:55:43.242Z,44.77
2022-10-29T14:58:10.530Z,45.62
2022-10-29T15:00:39.967Z,45.95
2022-10-29T15:03:08.239Z,46.43
2022-10-29T15:05:39.106Z,46.54
2022-10-29T15:08:13.422Z,46.71
2022-10-29T15:10:51.099Z,46.85
2022-10-29T15:13:37.460Z,46.96
2022-10-29T15:16:18.100Z,47.54
2022-10-29T15:18:54.459Z,47.87
2022-10-29T15:21:31.312Z,48.38
2022-10-29T15:24:09.307Z,48.76
2022-10-29T15:26:46.655Z,49.13
2022-10-29T15:29:14.335Z,49.91
2022-10-29T15:31:53.843Z,50.69
2022-10-29T15:34:35.341Z,50.96
2022-10-29T15:37:34.693Z,52.15
2022-10-29T15:40:07.260Z,52.41
2022-10-29T15:42:36.903Z,52.87
2022-10-29T15:47:53.560Z,53.79
2022-10-29T15:50:24.587Z,54.33
2022-10-29T15:53:02.134Z,54.57
2022-10-29T15:55:32.689Z,55.29
2022-10-29T15:58:07.099Z,55.83
2022-10-29T16:00:37.860Z,56.13
2022-10-29T16:03:14.202Z,56.54
2022-10-29T16:05:43.270Z,57.07
2022-10-29T16:08:33.723Z,57.59
2022-10-29T16:11:05.446Z,57.79
2022-10-29T16:13:33.187Z,58.13
2022-10-29T16:16:00.755Z,57.98
2022-10-29T16:18:30.235Z,58.69
2022-10-29T16:21:01.120Z,58.86
2022-10-29T16:23:28.589Z,59.30
2022-10-29T16:25:56.163Z,59.53
2022-10-29T16:28:23.443Z,60.41
2022-10-29T16:30:56.893Z,60.25
2022-10-29T16:33:24.449Z,60.40
2022-10-29T16:35:53.848Z,60.57
2022-10-29T16:38:21.309Z,60.88
2022-10-29T16:40:48.669Z,61.21
2022-10-29T16:43:16.021Z,61.71
2022-10-29T16:45:46.298Z,61.93
2022-10-29T16:48:15.628Z,62.13
2022-10-29T16:50:44.039Z,62.40
2022-10-29T16:53:13.124Z,62.03
2022-10-29T16:55:42.760Z,62.21
2022-10-29T16:58:14.069Z,62.50
2022-10-29T17:00:45.020Z,62.82
2022-10-29T17:03:14.298Z,63.42
2022-10-29T17:05:45.073Z,63.80
2022-10-29T17:08:12.941Z,64.45
2022-10-29T17:10:40.401Z,63.11
2022-10-29T17:13:09.213Z,63.74
2022-10-29T17:15:39.945Z,64.03
2022-10-29T17:18:11.642Z,62.79
2022-10-29T17:20:43.068Z,61.39
2022-10-29T17:23:10.451Z,60.31
2022-10-29T17:25:40.558Z,59.75
2022-10-29T17:28:07.910Z,60.97
2022-10-29T17:30:42.362Z,61.33
2022-10-29T17:33:10.294Z,60.80
2022-10-29T17:35:37.643Z,60.78
2022-10-29T17:38:05.219Z,59.57
2022-10-29T17:40:32.604Z,60.45
2022-10-29T17:43:00.159Z,60.85
2022-10-29T17:45:27.836Z,59.89
2022-10-29T17:47:59.393Z,60.00
2022-10-29T17:50:27.588Z,59.54
2022-10-29T17:52:58.097Z,58.21
2022-10-29T17:55:25.579Z,58.03
2022-10-29T17:57:53.045Z,57.76
2022-10-29T18:00:20.818Z,58.08
2022-10-29T18:02:51.750Z,57.14
2022-10-29T18:05:19.510Z,56.74
2022-10-29T18:07:46.851Z,56.74
2022-10-29T18:10:14.318Z,57.45
2022-10-29T18:12:43.340Z,57.25
2022-10-29T18:15:10.806Z,56.35
2022-10-29T18:17:40.770Z,56.10
2022-10-29T18:20:08.600Z,56.45
2022-10-29T18:22:36.755Z,57.15
2022-10-29T18:25:04.737Z,56.50
2022-10-29T18:27:32.205Z,56.64
2022-10-29T18:30:00.942Z,57.09
2022-10-29T18:32:29.659Z,57.48
2022-10-29T18:34:57.940Z,58.28
2022-10-29T18:37:25.281Z,58.10
2022-10-29T18:39:53.877Z,57.58
2022-10-29T18:42:21.163Z,57.44
2022-10-29T18:44:49.489Z,55.30
2022-10-29T18:47:18.080Z,55.51
2022-10-29T18:49:45.454Z,55.11
2022-10-29T18:52:13.020Z,54.50
2022-10-29T18:54:41.241Z,55.37
2022-10-29T18:57:08.665Z,56.38
2022-10-29T18:59:36.150Z,55.69
2022-10-29T19:02:03.611Z,56.31
2022-10-29T19:04:31.135Z,56.11
2022-10-29T19:06:59.795Z,55.45
2022-10-29T19:09:29.789Z,55.86
2022-10-29T19:11:59.475Z,56.28
2022-10-29T19:14:27.216Z,55.59
2022-10-29T19:16:54.789Z,56.19
2022-10-29T19:19:23.947Z,56.26
2022-10-29T19:21:51.859Z,56.47
2022-10-29T19:24:20.017Z,56.03
2022-10-29T19:26:47.640Z,54.47
2022-10-29T19:29:15.612Z,53.92
2022-10-29T19:31:48.219Z,54.78
2022-10-29T19:34:15.688Z,55.82
2022-10-29T19:36:43.378Z,55.25
2022-10-29T19:39:10.951Z,53.73
2022-10-29T19:41:38.436Z,53.74
2022-10-29T19:44:06.977Z,54.78
2022-10-29T19:46:35.449Z,54.81
2022-10-29T19:49:03.880Z,53.59
2022-10-29T19:51:31.185Z,53.60
2022-10-29T19:54:01.692Z,54.24
2022-10-29T19:56:31.479Z,54.54
2022-10-29T19:58:58.820Z,55.01
2022-10-29T20:01:27.017Z,55.50
2022-10-29T20:03:54.619Z,54.96
2022-10-29T20:06:22.121Z,55.01
2022-10-29T20:08:49.458Z,55.55
2022-10-29T20:11:17.066Z,55.67
2022-10-29T20:13:44.479Z,56.42
2022-10-29T20:16:15.848Z,56.53
2022-10-29T20:18:43.641Z,56.85
2022-10-29T20:21:12.244Z,58.26
2022-10-29T20:23:39.986Z,60.75
2022-10-29T20:26:08.427Z,64.15
2022-10-29T20:28:35.973Z,65.38
2022-10-29T20:31:13.542Z,64.93
2022-10-29T20:33:40.834Z,64.58
2022-10-29T20:36:08.788Z,66.95
2022-10-29T20:38:36.244Z,66.63
2022-10-29T20:41:03.687Z,65.43
2022-10-29T20:43:31.147Z,64.99
2022-10-29T20:46:02.557Z,65.99
2022-10-29T20:48:30.891Z,65.81
2022-10-29T20:50:59.070Z,64.27
2022-10-29T20:53:26.548Z,65.46
2022-10-29T20:55:53.889Z,66.92
2022-10-29T20:58:22.470Z,66.76
2022-10-29T21:00:50.591Z,66.90
2022-10-29T21:03:20.091Z,67.39
2022-10-29T21:05:49.189Z,66.74
2022-10-29T21:08:16.864Z,66.46
2022-10-29T21:10:44.273Z,65.51
2022-10-29T21:13:11.744Z,65.53
2022-10-29T21:15:39.077Z,65.58
2022-10-29T21:18:07.435Z,65.16
2022-10-29T21:20:46.020Z,65.33
2022-10-29T21:23:13.585Z,65.17
2022-10-29T21:25:41.027Z,64.74
2022-10-29T21:28:08.382Z,65.26
2022-10-29T21:30:36.806Z,64.88
2022-10-29T21:33:04.293Z,63.78
2022-10-29T21:35:31.756Z,62.81
2022-10-29T21:37:59.500Z,63.30
2022-10-29T21:40:27.038Z,65.08
2022-10-29T21:42:54.725Z,65.86
2022-10-29T21:45:22.343Z,65.68
2022-10-29T21:47:49.954Z,65.96
2022-10-29T21:50:17.436Z,65.53
2022-10-29T21:52:44.770Z,65.69
2022-10-29T21:55:12.022Z,61.30
2022-10-29T21:57:46.969Z,63.81
2022-10-29T22:00:16.625Z,64.70
2022-10-29T22:02:43.990Z,65.08
2022-10-29T22:05:14.497Z,65.85
2022-10-29T22:07:41.841Z,65.60
2022-10-29T22:10:10.166Z,66.24
2022-10-29T22:12:37.837Z,65.62
2022-10-29T22:15:06.261Z,65.01
2022-10-29T22:17:33.879Z,63.56
2022-10-29T22:20:01.200Z,61.79
2022-10-29T22:22:36.028Z,61.72
2022-10-29T22:25:05.580Z,55.91
2022-10-29T22:27:32.924Z,56.53
2022-10-29T22:30:00.280Z,56.88
2022-10-29T22:32:28.720Z,56.87
2022-10-29T22:34:57.027Z,57.45
2022-10-29T22:37:24.362Z,58.62
2022-10-29T22:39:52.691Z,57.61
2022-10-29T22:42:19.976Z,57.05
2022-10-29T22:44:47.359Z,56.51
2022-10-29T22:47:14.618Z,55.91
2022-10-29T22:49:41.987Z,54.90
2022-10-29T22:52:09.406Z,53.94
2022-10-29T22:54:39.245Z,52.74
2022-10-29T22:57:06.625Z,52.80
2022-10-29T22:59:34.105Z,51.25
2022-10-29T23:02:01.777Z,54.80
2022-10-29T23:04:29.237Z,56.50
2022-10-29T23:07:01.610Z,56.82
2022-10-29T23:09:29.317Z,56.04
2022-10-29T23:11:56.801Z,56.63
2022-10-29T23:14:25.130Z,54.55
2022-10-29T23:16:53.852Z,54.46
2022-10-29T23:19:21.231Z,56.19
2022-10-29T23:21:49.453Z,54.94
2022-10-29T23:24:16.882Z,54.13
2022-10-29T23:26:44.202Z,59.10
2022-10-29T23:29:11.661Z,59.26
2022-10-29T23:31:39.004Z,61.16
2022-10-29T23:34:07.582Z,61.56
2022-10-29T23:36:34.965Z,60.44
2022-10-29T23:39:03.138Z,60.26
2022-10-29T23:41:31.736Z,59.97
2022-10-29T23:44:00.560Z,59.52
2022-10-29T23:46:27.970Z,61.02
2022-10-29T23:48:55.382Z,61.37
2022-10-29T23:51:23.747Z,62.01
2022-10-29T23:53:54.718Z,63.08
2022-10-29T23:56:25.207Z,63.79
2022-10-29T23:58:52.944Z,63.39
